Terminal Aerodrome Forecast
Issued by NWS

Home | Current Version | Previous Version | Text Only | Print | Product List | Glossary On
Versions: 1 2 3 4 5 6 7 8 9 10 11 12 13 14
000
FTUS45 KVEF 021700
TAFBIH
TAF
KBIH 021726Z 0218/0318 VRB04KT P6SM FEW120 BKN150
     FM022000 22006KT P6SM VCSH SCT050 BKN070
     FM030200 35008KT P6SM FEW050 SCT070=

USA.gov is the U.S. government's official web portal to all federal, state and local government web resources and services.